createdAt,value
2023-04-18T00:01:50.108Z,33.29
2023-04-18T00:04:18.188Z,33.11
2023-04-18T00:06:47.108Z,32.90
2023-04-18T00:09:13.880Z,32.91
2023-04-18T00:11:40.752Z,32.98
2023-04-18T00:14:08.411Z,33.02
2023-04-18T00:16:36.069Z,32.77
2023-04-18T00:19:04.369Z,34.64
2023-04-18T00:21:31.892Z,36.03
2023-04-18T00:23:58.689Z,37.91
2023-04-18T00:26:25.640Z,37.30
2023-04-18T00:28:52.420Z,35.89
2023-04-18T00:31:19.190Z,34.93
2023-04-18T00:33:45.976Z,34.33
2023-04-18T00:36:12.763Z,33.94
2023-04-18T00:38:39.498Z,33.82
2023-04-18T00:41:06.246Z,33.66
2023-04-18T00:43:34.994Z,33.77
2023-04-18T00:46:01.871Z,33.57
2023-04-18T00:48:28.777Z,33.53
2023-04-18T00:50:55.750Z,33.55
2023-04-18T00:53:22.501Z,33.46
2023-04-18T00:55:49.221Z,32.94
2023-04-18T00:58:16.004Z,33.15
2023-04-18T01:00:42.814Z,33.16
2023-04-18T01:03:10.625Z,32.83
2023-04-18T01:05:37.658Z,32.76
2023-04-18T01:08:04.558Z,33.01
2023-04-18T01:10:31.321Z,33.15
2023-04-18T01:12:58.169Z,32.91
2023-04-18T01:15:24.907Z,32.90
2023-04-18T01:17:52.336Z,32.52
2023-04-18T01:20:19.307Z,33.71
2023-04-18T01:22:46.377Z,35.79
2023-04-18T01:25:13.178Z,37.03
2023-04-18T01:27:39.936Z,37.53
2023-04-18T01:30:06.686Z,36.33
2023-04-18T01:32:33.433Z,35.24
2023-04-18T01:35:00.203Z,34.57
2023-04-18T01:37:26.931Z,34.11
2023-04-18T01:39:53.769Z,33.98
2023-04-18T01:42:20.563Z,33.90
2023-04-18T01:44:47.305Z,33.86
2023-04-18T01:47:14.056Z,33.43
2023-04-18T01:49:46.509Z,33.24
2023-04-18T01:52:14.140Z,33.45
2023-04-18T01:54:40.915Z,33.27
2023-04-18T01:57:07.758Z,33.10
2023-04-18T01:59:34.583Z,33.19
2023-04-18T02:02:01.508Z,33.14
2023-04-18T02:04:28.322Z,32.86
2023-04-18T02:06:55.063Z,32.95
2023-04-18T02:09:21.805Z,32.92
2023-04-18T02:11:48.595Z,32.86
2023-04-18T02:14:15.683Z,32.78
2023-04-18T02:16:42.558Z,32.84
2023-04-18T02:19:09.357Z,32.66
2023-04-18T02:21:36.093Z,35.06
2023-04-18T02:24:02.880Z,36.59
2023-04-18T02:26:29.643Z,37.96
2023-04-18T02:28:58.458Z,37.32
2023-04-18T02:31:25.256Z,35.61
2023-04-18T02:33:52.035Z,34.85
2023-04-18T02:36:18.781Z,34.36
2023-04-18T02:38:45.630Z,33.91
2023-04-18T02:41:15.200Z,33.71
2023-04-18T02:43:42.091Z,33.27
2023-04-18T02:46:08.834Z,33.58
2023-04-18T02:48:35.637Z,33.38
2023-04-18T02:51:03.269Z,33.53
2023-04-18T02:53:30.068Z,32.90
2023-04-18T02:55:56.919Z,33.06
2023-04-18T02:58:23.847Z,33.20
2023-04-18T03:00:50.609Z,32.74
2023-04-18T03:03:17.436Z,32.84
2023-04-18T03:05:44.283Z,32.94
2023-04-18T03:08:11.027Z,32.96
2023-04-18T03:10:37.807Z,32.85
2023-04-18T03:13:04.581Z,32.69
2023-04-18T03:15:31.442Z,32.29
2023-04-18T03:17:58.305Z,32.73
2023-04-18T03:20:25.265Z,32.58
2023-04-18T03:22:52.449Z,34.08
2023-04-18T03:25:19.243Z,36.32
2023-04-18T03:27:46.034Z,37.31
2023-04-18T03:30:13.265Z,37.44
2023-04-18T03:32:42.024Z,35.73
2023-04-18T03:35:08.976Z,34.89
2023-04-18T03:37:36.075Z,34.12
2023-04-18T03:40:05.139Z,33.93
2023-04-18T03:42:31.976Z,33.45
2023-04-18T03:44:58.706Z,33.48
2023-04-18T03:47:25.506Z,33.25
2023-04-18T03:49:54.095Z,33.24
2023-04-18T03:52:20.889Z,33.14
2023-04-18T03:54:47.673Z,32.95
2023-04-18T03:57:15.811Z,32.98
2023-04-18T03:59:42.648Z,33.20
2023-04-18T04:02:09.645Z,32.85
2023-04-18T04:04:36.933Z,32.85
2023-04-18T04:07:03.684Z,32.75
2023-04-18T04:09:30.509Z,32.88
2023-04-18T04:11:57.240Z,32.83
2023-04-18T04:14:24.524Z,32.69
2023-04-18T04:16:51.321Z,32.41
2023-04-18T04:19:18.084Z,34.36
2023-04-18T04:21:44.830Z,36.06
2023-04-18T04:24:11.848Z,37.47
2023-04-18T04:26:38.773Z,36.84
2023-04-18T04:29:05.531Z,35.53
2023-04-18T04:31:32.336Z,34.73
2023-04-18T04:33:59.166Z,34.16
2023-04-18T04:36:27.095Z,33.55
2023-04-18T04:38:53.902Z,33.69
2023-04-18T04:41:22.222Z,33.66
2023-04-18T04:43:49.743Z,33.10
2023-04-18T04:46:19.990Z,33.17
2023-04-18T04:48:46.953Z,33.22
2023-04-18T04:51:13.742Z,33.25
2023-04-18T04:53:40.476Z,32.94
2023-04-18T04:56:07.211Z,32.81
2023-04-18T04:58:33.993Z,32.90
2023-04-18T05:01:00.971Z,32.97
2023-04-18T05:03:27.918Z,32.91
2023-04-18T05:05:54.795Z,32.75
2023-04-18T05:08:21.552Z,32.78
2023-04-18T05:10:49.636Z,32.32
2023-04-18T05:13:16.431Z,32.68
2023-04-18T05:15:43.184Z,32.11
2023-04-18T05:18:10.009Z,32.42
2023-04-18T05:20:36.899Z,32.19
2023-04-18T05:23:03.655Z,33.33
2023-04-18T05:25:31.545Z,35.62
2023-04-18T05:27:58.469Z,35.95
2023-04-18T05:30:25.250Z,37.02
2023-04-18T05:32:52.031Z,35.73
2023-04-18T05:35:18.835Z,34.39
2023-04-18T05:37:45.591Z,33.93
2023-04-18T05:40:12.328Z,33.88
2023-04-18T05:42:39.224Z,33.55
2023-04-18T05:45:05.972Z,33.32
2023-04-18T05:47:33.473Z,33.20
2023-04-18T05:50:00.395Z,33.07
2023-04-18T05:52:27.192Z,32.89
2023-04-18T05:54:54.059Z,32.92
2023-04-18T05:57:20.803Z,32.65
2023-04-18T05:59:47.620Z,32.98
2023-04-18T06:02:14.484Z,32.78
2023-04-18T06:04:44.849Z,32.61
2023-04-18T06:07:11.904Z,32.26
2023-04-18T06:09:38.659Z,32.69
2023-04-18T06:12:05.459Z,32.37
2023-04-18T06:14:32.286Z,32.55
2023-04-18T06:16:59.017Z,32.36
2023-04-18T06:19:25.815Z,32.40
2023-04-18T06:21:52.579Z,32.53
2023-04-18T06:24:19.346Z,32.29
2023-04-18T06:26:46.359Z,34.87
2023-04-18T06:29:13.137Z,35.78
2023-04-18T06:31:41.037Z,37.38
2023-04-18T06:34:07.805Z,36.46
2023-04-18T06:36:34.564Z,35.09
2023-04-18T06:39:01.357Z,34.11
2023-04-18T06:41:28.109Z,33.56
2023-04-18T06:44:03.421Z,33.50
2023-04-18T06:46:31.206Z,33.49
2023-04-18T06:48:58.201Z,33.07
2023-04-18T06:51:25.091Z,32.97
2023-04-18T06:53:55.039Z,33.04
2023-04-18T06:56:21.894Z,33.02
2023-04-18T06:58:48.749Z,33.08
2023-04-18T07:01:15.871Z,32.85
2023-04-18T07:03:42.752Z,32.79
2023-04-18T07:06:10.755Z,32.24
2023-04-18T07:08:37.660Z,32.72
2023-04-18T07:11:04.439Z,32.64
2023-04-18T07:13:31.310Z,32.57
2023-04-18T07:15:58.062Z,32.47
2023-04-18T07:18:36.740Z,32.64
2023-04-18T07:21:07.225Z,34.94
2023-04-18T07:23:34.255Z,36.88
2023-04-18T07:26:02.630Z,38.68
2023-04-18T07:28:29.554Z,36.38
2023-04-18T07:30:56.886Z,35.00
2023-04-18T07:33:23.747Z,34.44
2023-04-18T07:35:51.265Z,33.86
2023-04-18T07:38:18.039Z,33.56
2023-04-18T07:40:44.817Z,33.29
2023-04-18T07:43:11.613Z,33.00
2023-04-18T07:45:38.426Z,32.78
2023-04-18T07:48:05.274Z,33.20
2023-04-18T07:50:32.073Z,33.15
2023-04-18T07:52:58.855Z,33.06
2023-04-18T07:55:25.589Z,32.91
2023-04-18T07:57:52.333Z,32.91
2023-04-18T08:00:19.225Z,32.95
2023-04-18T08:02:46.366Z,32.62
2023-04-18T08:05:13.389Z,32.34
2023-04-18T08:07:40.348Z,32.41
2023-04-18T08:10:07.103Z,32.38
2023-04-18T08:12:33.906Z,32.09
2023-04-18T08:15:00.762Z,31.95
2023-04-18T08:17:27.676Z,32.70
2023-04-18T08:19:54.501Z,35.40
2023-04-18T08:22:21.293Z,35.98
2023-04-18T08:25:03.305Z,37.09
2023-04-18T08:27:31.342Z,35.75
2023-04-18T08:29:58.204Z,34.63
2023-04-18T08:32:25.104Z,34.08
2023-04-18T08:34:51.931Z,33.75
2023-04-18T08:37:18.681Z,33.28
2023-04-18T08:39:45.412Z,33.25
2023-04-18T08:42:12.195Z,33.15
2023-04-18T08:44:39.018Z,33.35
2023-04-18T08:47:06.070Z,33.15
2023-04-18T08:49:33.954Z,33.23
2023-04-18T08:52:01.055Z,32.91
2023-04-18T08:54:30.288Z,32.94
2023-04-18T08:56:58.154Z,32.73
2023-04-18T08:59:25.069Z,32.58
2023-04-18T09:01:52.912Z,32.65
2023-04-18T09:04:22.110Z,32.70
2023-04-18T09:06:49.171Z,32.26
2023-04-18T09:09:16.040Z,32.44
2023-04-18T09:11:42.818Z,32.10
2023-04-18T09:14:09.621Z,35.50
2023-04-18T09:16:37.678Z,36.48
2023-04-18T09:19:06.719Z,37.97
2023-04-18T09:21:35.965Z,36.04
2023-04-18T09:24:02.740Z,34.72
2023-04-18T09:26:30.169Z,34.31
2023-04-18T09:28:57.318Z,33.75
2023-04-18T09:31:24.225Z,33.56
2023-04-18T09:33:52.653Z,33.34
2023-04-18T09:36:19.589Z,33.10
2023-04-18T09:38:46.406Z,33.50
2023-04-18T09:41:13.344Z,33.13
2023-04-18T09:43:40.148Z,32.77
2023-04-18T09:46:06.929Z,32.90
2023-04-18T09:48:33.732Z,32.97
2023-04-18T09:51:00.505Z,32.96
2023-04-18T09:53:27.289Z,32.72
2023-04-18T09:55:55.545Z,32.53
2023-04-18T09:58:24.320Z,32.48
2023-04-18T10:00:51.066Z,32.75
2023-04-18T10:03:18.031Z,33.19
2023-04-18T10:05:45.747Z,36.64
2023-04-18T10:08:12.565Z,37.15
2023-04-18T10:10:39.395Z,37.97
2023-04-18T10:13:06.459Z,35.89
2023-04-18T10:15:33.253Z,34.76
2023-04-18T10:18:05.108Z,34.36
2023-04-18T10:20:32.706Z,33.81
2023-04-18T10:22:59.492Z,33.77
2023-04-18T10:25:26.296Z,33.34
2023-04-18T10:27:53.045Z,33.27
2023-04-18T10:30:19.801Z,33.57
2023-04-18T10:32:46.859Z,33.42
2023-04-18T10:35:13.981Z,32.95
2023-04-18T10:37:41.046Z,32.94
2023-04-18T10:40:07.834Z,32.97
2023-04-18T10:42:34.596Z,32.53
2023-04-18T10:45:01.364Z,32.51
2023-04-18T10:47:28.340Z,32.68
2023-04-18T10:49:55.406Z,32.58
2023-04-18T10:52:22.199Z,32.65
2023-04-18T10:54:48.950Z,35.64
2023-04-18T10:57:15.767Z,38.10
2023-04-18T10:59:42.651Z,38.98
2023-04-18T11:02:09.515Z,36.26
2023-04-18T11:04:36.361Z,35.00
2023-04-18T11:07:03.146Z,34.55
2023-04-18T11:09:30.019Z,33.78
2023-04-18T11:11:56.771Z,33.84
2023-04-18T11:14:23.526Z,33.53
2023-04-18T11:16:50.316Z,33.42
2023-04-18T11:19:17.101Z,33.40
2023-04-18T11:21:43.945Z,33.33
2023-04-18T11:24:10.949Z,33.20
2023-04-18T11:26:37.787Z,33.17
2023-04-18T11:29:04.557Z,33.21
2023-04-18T11:31:31.434Z,33.11
2023-04-18T11:33:58.237Z,33.04
2023-04-18T11:36:25.027Z,32.97
2023-04-18T11:38:51.831Z,32.96
2023-04-18T11:41:18.597Z,32.69
2023-04-18T11:43:45.370Z,33.01
2023-04-18T11:46:12.360Z,36.49
2023-04-18T11:48:39.270Z,36.45
2023-04-18T11:51:06.372Z,37.80
2023-04-18T11:53:33.550Z,35.90
2023-04-18T11:56:00.916Z,34.86
2023-04-18T11:58:27.638Z,34.60
2023-04-18T12:00:54.425Z,34.09
2023-04-18T12:03:22.507Z,33.95
2023-04-18T12:05:49.577Z,34.02
2023-04-18T12:08:16.681Z,33.66
2023-04-18T12:10:43.429Z,33.19
2023-04-18T12:13:10.241Z,33.27
2023-04-18T12:15:38.562Z,33.44
2023-04-18T12:18:06.048Z,33.41
2023-04-18T12:20:32.838Z,33.21
2023-04-18T12:22:59.602Z,32.85
2023-04-18T12:25:27.758Z,33.11
2023-04-18T12:27:54.742Z,34.43
2023-04-18T12:30:22.363Z,37.05
2023-04-18T12:32:49.229Z,38.36
2023-04-18T12:35:16.021Z,37.62
2023-04-18T12:37:42.828Z,35.90
2023-04-18T12:40:10.713Z,35.12
2023-04-18T12:42:37.521Z,34.64
2023-04-18T12:45:07.543Z,34.18
2023-04-18T12:47:35.540Z,34.00
2023-04-18T12:50:02.363Z,34.07
2023-04-18T12:52:30.107Z,33.93
2023-04-18T12:54:57.714Z,33.77
2023-04-18T12:57:24.593Z,33.69
2023-04-18T12:59:51.380Z,33.24
2023-04-18T13:02:18.227Z,33.56
2023-04-18T13:04:45.249Z,33.58
2023-04-18T13:07:12.105Z,33.24
2023-04-18T13:09:38.858Z,33.09
2023-04-18T13:12:05.874Z,33.24
2023-04-18T13:14:32.686Z,33.38
2023-04-18T13:16:59.502Z,36.09
2023-04-18T13:19:26.392Z,37.47
2023-04-18T13:21:53.238Z,39.00
2023-04-18T13:24:20.232Z,37.31
2023-04-18T13:26:46.999Z,35.91
2023-04-18T13:29:14.049Z,35.24
2023-04-18T13:31:41.268Z,34.57
2023-04-18T13:34:08.051Z,34.41
2023-04-18T13:36:35.104Z,34.14
2023-04-18T13:39:04.275Z,34.20
2023-04-18T13:41:31.102Z,33.95
2023-04-18T13:43:57.928Z,33.92
2023-04-18T13:46:26.417Z,33.56
2023-04-18T13:48:53.228Z,33.70
2023-04-18T13:51:20.165Z,33.74
2023-04-18T13:53:47.063Z,33.57
2023-04-18T13:56:13.877Z,33.45
2023-04-18T13:58:40.923Z,33.68
2023-04-18T14:01:07.745Z,33.59
2023-04-18T14:03:36.242Z,33.49
2023-04-18T14:06:04.939Z,37.60
2023-04-18T14:08:31.712Z,38.47
2023-04-18T14:10:58.505Z,37.56
2023-04-18T14:13:25.593Z,35.97
2023-04-18T14:15:52.377Z,35.16
2023-04-18T14:18:21.538Z,34.67
2023-04-18T14:20:48.587Z,34.64
2023-04-18T14:23:15.971Z,34.42
2023-04-18T14:25:42.790Z,34.17
2023-04-18T14:28:09.775Z,34.32
2023-04-18T14:30:36.606Z,33.91
2023-04-18T14:33:03.779Z,34.03
2023-04-18T14:35:30.666Z,33.97
2023-04-18T14:37:57.428Z,33.61
2023-04-18T14:40:24.229Z,33.43
2023-04-18T14:42:51.256Z,33.48
2023-04-18T14:45:18.059Z,33.69
2023-04-18T14:47:44.901Z,33.57
2023-04-18T14:50:15.365Z,33.89
2023-04-18T14:52:42.167Z,37.27
2023-04-18T14:55:08.907Z,37.33
2023-04-18T14:57:35.691Z,38.37
2023-04-18T15:00:03.914Z,36.52
2023-04-18T15:02:30.761Z,35.41
2023-04-18T15:04:57.742Z,35.20
2023-04-18T15:07:24.677Z,34.68
2023-04-18T15:09:51.431Z,34.71
2023-04-18T15:12:18.242Z,34.58
2023-04-18T15:14:45.130Z,34.31
2023-04-18T15:17:11.915Z,34.52
2023-04-18T15:19:38.683Z,34.06
2023-04-18T15:22:05.566Z,34.19
2023-04-18T15:24:32.316Z,33.95
2023-04-18T15:26:59.134Z,33.84
2023-04-18T15:29:26.110Z,33.89
2023-04-18T15:31:52.916Z,33.89
2023-04-18T15:34:19.708Z,34.42
2023-04-18T15:36:46.484Z,37.02
2023-04-18T15:39:13.231Z,37.24
2023-04-18T15:41:41.948Z,38.65
2023-04-18T15:44:08.863Z,37.39
2023-04-18T15:46:36.037Z,35.88
2023-04-18T15:49:02.881Z,35.23
2023-04-18T15:51:30.185Z,34.97
2023-04-18T15:53:56.944Z,34.65
2023-04-18T15:56:23.821Z,34.45
2023-04-18T15:58:50.600Z,34.66
2023-04-18T16:01:17.355Z,34.58
2023-04-18T16:03:44.251Z,34.46
2023-04-18T16:06:11.268Z,34.06
2023-04-18T16:08:38.103Z,34.01
2023-04-18T16:11:05.320Z,34.08
2023-04-18T16:13:32.137Z,33.95
2023-04-18T16:15:58.882Z,33.70
2023-04-18T16:18:25.711Z,33.89
2023-04-18T16:20:52.481Z,36.89
2023-04-18T16:23:20.363Z,37.83
2023-04-18T16:25:47.153Z,39.82
2023-04-18T16:28:13.887Z,38.19
2023-04-18T16:30:43.626Z,36.45
2023-04-18T16:33:10.666Z,35.78
2023-04-18T16:35:37.496Z,34.98
2023-04-18T16:38:04.317Z,34.88
2023-04-18T16:40:31.856Z,34.93
2023-04-18T16:42:58.702Z,34.99
2023-04-18T16:45:25.484Z,34.59
2023-04-18T16:47:52.301Z,34.94
2023-04-18T16:50:19.402Z,34.42
2023-04-18T16:52:46.139Z,34.40
2023-04-18T16:55:12.925Z,34.37
2023-04-18T16:57:39.682Z,34.40
2023-04-18T17:00:06.998Z,34.04
2023-04-18T17:02:33.875Z,34.07
2023-04-18T17:05:00.797Z,34.16
2023-04-18T17:07:27.690Z,34.21
2023-04-18T17:09:54.490Z,34.28
2023-04-18T17:12:21.438Z,34.09
2023-04-18T17:14:48.207Z,34.49
2023-04-18T17:17:15.469Z,37.67
2023-04-18T17:19:42.234Z,37.66
2023-04-18T17:22:08.967Z,39.53
2023-04-18T17:24:36.035Z,37.32
2023-04-18T17:27:02.809Z,35.93
2023-04-18T17:29:29.553Z,35.33
2023-04-18T17:31:56.784Z,35.50
2023-04-18T17:34:23.596Z,35.23
2023-04-18T17:36:50.535Z,34.66
2023-04-18T17:39:17.460Z,34.91
2023-04-18T17:41:44.302Z,34.75
2023-04-18T17:44:11.150Z,34.59
2023-04-18T17:46:37.992Z,34.63
2023-04-18T17:49:04.874Z,34.70
2023-04-18T17:51:31.728Z,34.42
2023-04-18T17:53:58.524Z,34.52
2023-04-18T17:56:25.487Z,34.38
2023-04-18T17:58:53.330Z,34.45
2023-04-18T18:01:22.271Z,33.93
2023-04-18T18:03:49.466Z,33.82
2023-04-18T18:06:16.634Z,34.00
2023-04-18T18:08:43.583Z,36.09
2023-04-18T18:11:10.629Z,37.92
2023-04-18T18:13:38.824Z,38.54
2023-04-18T18:16:05.714Z,38.80
2023-04-18T18:18:32.653Z,36.99
2023-04-18T18:20:59.412Z,36.38
2023-04-18T18:23:26.230Z,35.52
2023-04-18T18:25:53.001Z,35.32
2023-04-18T18:28:19.747Z,35.39
2023-04-18T18:30:46.537Z,35.33
2023-04-18T18:33:13.724Z,35.01
2023-04-18T18:35:40.489Z,35.01
2023-04-18T18:38:07.341Z,34.75
2023-04-18T18:40:34.219Z,34.44
2023-04-18T18:43:00.982Z,34.80
2023-04-18T18:45:27.797Z,34.18
2023-04-18T18:47:54.641Z,34.09
2023-04-18T18:50:21.429Z,34.42
2023-04-18T18:52:48.326Z,34.35
2023-04-18T18:55:16.198Z,34.46
2023-04-18T18:57:42.966Z,34.46
2023-04-18T19:00:11.085Z,36.18
2023-04-18T19:02:38.194Z,38.05
2023-04-18T19:05:05.611Z,38.78
2023-04-18T19:07:32.364Z,39.35
2023-04-18T19:10:01.422Z,37.39
2023-04-18T19:12:29.116Z,36.54
2023-04-18T19:14:56.081Z,35.51
2023-04-18T19:17:24.561Z,35.44
2023-04-18T19:19:51.722Z,35.51
2023-04-18T19:22:18.581Z,34.88
2023-04-18T19:24:45.399Z,35.07
2023-04-18T19:27:12.141Z,34.82
2023-04-18T19:29:38.968Z,34.81
2023-04-18T19:32:06.256Z,34.75
2023-04-18T19:34:32.990Z,34.38
2023-04-18T19:37:01.080Z,34.63
2023-04-18T19:39:27.854Z,34.59
2023-04-18T19:41:54.619Z,34.19
2023-04-18T19:44:21.409Z,34.23
2023-04-18T19:46:48.340Z,34.43
2023-04-18T19:49:15.319Z,34.56
2023-04-18T19:51:42.188Z,36.45
2023-04-18T19:54:09.028Z,37.78
2023-04-18T19:56:35.778Z,39.06
2023-04-18T19:59:04.627Z,38.71
2023-04-18T20:01:31.413Z,37.08
2023-04-18T20:03:59.978Z,36.15
2023-04-18T20:06:27.113Z,35.86
2023-04-18T20:08:54.239Z,35.44
2023-04-18T20:11:21.994Z,34.97
2023-04-18T20:13:48.894Z,35.10
2023-04-18T20:16:16.720Z,34.76
2023-04-18T20:18:44.220Z,34.99
2023-04-18T20:21:11.165Z,34.41
2023-04-18T20:23:38.009Z,34.33
2023-04-18T20:26:04.753Z,34.64
2023-04-18T20:28:31.569Z,34.28
2023-04-18T20:30:58.449Z,34.28
2023-04-18T20:33:25.210Z,34.46
2023-04-18T20:35:53.639Z,33.98
2023-04-18T20:38:25.809Z,34.38
2023-04-18T20:40:54.015Z,34.60
2023-04-18T20:43:21.237Z,37.72
2023-04-18T20:45:50.770Z,37.77
2023-04-18T20:48:17.621Z,39.39
2023-04-18T20:50:50.605Z,37.84
2023-04-18T20:53:17.342Z,36.90
2023-04-18T20:55:44.108Z,36.25
2023-04-18T20:58:10.919Z,35.89
2023-04-18T21:00:37.671Z,35.22
2023-04-18T21:03:04.573Z,35.21
2023-04-18T21:05:31.478Z,35.19
2023-04-18T21:07:59.563Z,34.74
2023-04-18T21:10:26.316Z,34.70
2023-04-18T21:12:53.212Z,34.73
2023-04-18T21:15:19.955Z,34.72
2023-04-18T21:17:46.739Z,34.80
2023-04-18T21:20:13.539Z,34.61
2023-04-18T21:22:40.347Z,34.10
2023-04-18T21:25:07.363Z,34.01
2023-04-18T21:27:34.203Z,34.26
2023-04-18T21:30:02.361Z,34.09
2023-04-18T21:32:30.907Z,34.23
2023-04-18T21:34:57.839Z,36.48
2023-04-18T21:37:24.984Z,37.35
2023-04-18T21:39:52.029Z,38.90
2023-04-18T21:42:18.798Z,38.46
2023-04-18T21:44:45.582Z,37.25
2023-04-18T21:47:12.351Z,36.48
2023-04-18T21:49:39.118Z,35.88
2023-04-18T21:52:05.905Z,35.44
2023-04-18T21:54:32.663Z,35.01
2023-04-18T21:56:59.487Z,35.14
2023-04-18T21:59:26.235Z,35.14
2023-04-18T22:01:52.999Z,34.94
2023-04-18T22:04:21.768Z,34.91
2023-04-18T22:06:48.715Z,34.71
2023-04-18T22:09:18.948Z,34.46
2023-04-18T22:11:45.800Z,34.23
2023-04-18T22:14:14.531Z,34.41
2023-04-18T22:16:42.240Z,34.49
2023-04-18T22:19:09.353Z,34.13
2023-04-18T22:21:36.093Z,34.23
2023-04-18T22:24:02.822Z,34.38
2023-04-18T22:26:29.566Z,35.01
2023-04-18T22:28:56.304Z,37.93
2023-04-18T22:31:23.140Z,37.97
2023-04-18T22:33:50.055Z,39.84
2023-04-18T22:36:16.814Z,37.79
2023-04-18T22:38:43.554Z,36.81
2023-04-18T22:41:10.337Z,35.97
2023-04-18T22:43:37.114Z,35.89
2023-04-18T22:46:03.930Z,35.63
2023-04-18T22:48:31.066Z,35.15
2023-04-18T22:50:57.839Z,35.28
2023-04-18T22:53:24.560Z,34.71
2023-04-18T22:55:51.606Z,34.82
2023-04-18T22:58:18.379Z,34.81
2023-04-18T23:00:45.150Z,34.57
2023-04-18T23:03:11.994Z,34.57
2023-04-18T23:05:38.873Z,34.10
2023-04-18T23:08:06.676Z,34.38
2023-04-18T23:10:33.440Z,34.45
2023-04-18T23:13:00.418Z,34.25
2023-04-18T23:15:27.267Z,34.26
2023-04-18T23:17:54.147Z,34.00
2023-04-18T23:20:21.155Z,34.18
2023-04-18T23:22:50.007Z,33.96
2023-04-18T23:25:16.780Z,37.46
2023-04-18T23:27:43.546Z,37.46
2023-04-18T23:30:10.311Z,39.29
2023-04-18T23:32:37.140Z,38.77
2023-04-18T23:35:04.065Z,37.89
2023-04-18T23:37:31.350Z,36.97
2023-04-18T23:39:58.133Z,36.04
2023-04-18T23:42:24.904Z,35.80
2023-04-18T23:44:51.678Z,35.26
2023-04-18T23:47:18.610Z,34.99
2023-04-18T23:49:45.590Z,34.71
2023-04-18T23:52:12.346Z,34.97
2023-04-18T23:54:39.102Z,34.73
2023-04-18T23:57:05.976Z,34.46
2023-04-18T23:59:32.719Z,34.31
